ADDS METAR Data INFO
IDs: Format: Raw Decoded Include TAF

Data at: 0020 UTC 11 Dec 2017

KFBL 110015Z AUTO 00000KT 10SM CLR M06/M07 A3006 RMK AO2
KFBL 102355Z AUTO 00000KT 10SM CLR M06/M07 A3006 RMK AO2
KFBL 102335Z AUTO 00000KT 10SM CLR M04/M06 A3006 RMK AO2
KFBL 102315Z AUTO 00000KT 10SM SCT120 M04/M06 A3006 RMK AO2
KFBL 102255Z AUTO 00000KT 10SM SCT018 M03/M06 A3005 RMK AO2
KFBL 102235Z AUTO 00000KT 10SM BKN018 M03/M06 A3005 RMK AO2
KFBL 102215Z AUTO 27004KT 10SM SCT018 M03/M06 A3004 RMK AO2
KFBL 102155Z AUTO 28004KT 10SM BKN018 M02/M06 A3003 RMK AO2
KFBL 102135Z AUTO 26006KT 10SM BKN018 BKN110 M02/M06 A3002 RMK AO2
KFBL 102115Z AUTO 30005KT 10SM BKN018 M02/M05 A3002 RMK AO2
KFBL 102055Z AUTO 29005KT 10SM OVC018 M02/M05 A3003 RMK AO2
KFBL 102035Z AUTO 27006KT 10SM OVC018 M02/M06 A3001 RMK AO2
KFBL 102015Z AUTO 30008KT 10SM OVC018 M02/M06 A3002 RMK AO2
KFBL 101955Z AUTO 31006KT 10SM OVC018 M02/M05 A3002 RMK AO2
KFBL 101935Z AUTO 31007KT 10SM OVC018 M02/M05 A3002 RMK AO2
KFBL 101915Z AUTO 30007KT 10SM OVC018 M02/M05 A3002 RMK AO2
KFBL 101855Z AUTO 30008KT 10SM OVC018 M01/M05 A3001 RMK AO2
KFBL 101835Z AUTO 30005KT 10SM OVC018 M01/M05 A3000 RMK AO2
KFBL 101815Z AUTO 29007KT 10SM OVC018 M01/M05 A2999 RMK AO2
KFBL 101755Z AUTO 33007KT 10SM OVC018 M01/M05 A2999 RMK AO2
KFBL 101735Z AUTO 32008KT 10SM OVC020 M02/M06 A2999 RMK AO2
KFBL 101715Z AUTO 32007KT 10SM OVC020 M02/M05 A2999 RMK AO2
KFBL 101655Z AUTO 30005KT 10SM OVC022 M02/M05 A2999 RMK AO2
KFBL 101635Z AUTO 32008KT 10SM OVC022 M02/M05 A2999 RMK AO2
KFBL 101615Z AUTO 31010KT 10SM OVC024 M02/M05 A2999 RMK AO2
KFBL 101555Z AUTO 31006KT 10SM OVC024 M02/M06 A2998 RMK AO2
KFBL 101535Z AUTO 31007KT 10SM OVC024 M02/M06 A2996 RMK AO2
KFBL 101515Z AUTO 31010G14KT 10SM OVC024 M02/M06 A2996 RMK AO2
KFBL 101455Z AUTO 30006KT 10SM OVC024 M03/M06 A2995 RMK AO2
KFBL 101436Z AUTO 31009KT 10SM OVC024 M03/M06 A2994 RMK AO2
KFBL 101415Z AUTO 30009KT 10SM OVC024 M03/M06 A2993 RMK AO2
KFBL 101355Z AUTO 30007KT 10SM BKN022 M03/M06 A2991 RMK AO2
KFBL 101336Z AUTO 31008KT 10SM SCT024 M04/M06 A2991 RMK AO2
KFBL 101315Z AUTO 30006KT 10SM CLR M04/M06 A2990 RMK AO2
KFBL 101255Z AUTO 30008KT 10SM CLR M03/M06 A2990 RMK AO2
KFBL 101235Z AUTO 30008KT 10SM CLR M03/M06 A2990 RMK AO2
KFBL 101215Z AUTO 31009G16KT 10SM CLR M03/M06 A2988 RMK AO2
KFBL 101155Z AUTO 30009KT 10SM CLR M03/M06 A2987 RMK AO2
KFBL 101135Z AUTO 30009KT 10SM CLR M03/M06 A2986 RMK AO2
KFBL 101115Z AUTO 29008KT 10SM CLR M03/M06 A2984 RMK AO2
KFBL 101055Z AUTO 29008KT 10SM CLR M03/M06 A2983 RMK AO2
KFBL 101035Z AUTO 29007KT 10SM CLR M04/M06 A2983 RMK AO2
KFBL 101015Z AUTO 27006KT 10SM CLR M04/M06 A2982 RMK AO2
KFBL 100955Z AUTO 26005KT 10SM CLR M06/M07 A2983 RMK AO2
KFBL 100935Z AUTO 24004KT 10SM CLR M06/M07 A2981 RMK AO2
KFBL 100915Z AUTO 22005KT 10SM CLR M06/M08 A2982 RMK AO2
KFBL 100855Z AUTO 22004KT 10SM CLR M06/M08 A2982 RMK AO2
KFBL 100835Z AUTO 00000KT 10SM CLR M06/M08 A2982 RMK AO2
KFBL 100815Z AUTO 21004KT 10SM CLR M06/M08 A2982 RMK AO2
KFBL 100755Z AUTO 21006KT 10SM CLR M06/M07 A2982 RMK AO2
KFBL 100735Z AUTO 20006KT 10SM CLR M05/M07 A2981 RMK AO2
KFBL 100715Z AUTO 19007KT 10SM CLR M05/M07 A2981 RMK AO2
KFBL 100655Z AUTO 20007KT 10SM CLR M05/M07 A2982 RMK AO2
KFBL 100635Z AUTO 19006KT 10SM CLR M05/M07 A2983 RMK AO2
KFBL 100615Z AUTO 19006KT 10SM CLR M05/M07 A2984 RMK AO2
KFBL 100555Z AUTO 19005KT 10SM CLR M04/M07 A2985 RMK AO2
KFBL 100535Z AUTO 19007KT 10SM CLR M04/M08 A2986 RMK AO2
KFBL 100515Z AUTO 19008KT 10SM BKN085 M04/M08 A2988 RMK AO2
KFBL 100455Z AUTO 19006KT 10SM BKN085 120 M04/M08 A2990 RMK AO2
KFBL 100435Z AUTO 20008KT 162V222 10SM SCT085 SCT110 M04/M08 A2990 RMK AO2
KFBL 100415Z AUTO 19009KT 10SM SCT110 M05/M08 A2989 RMK AO2
KFBL 100355Z AUTO 19008KT 10SM SCT110 M06/M09 A2990 RMK AO2
KFBL 100335Z AUTO 18008KT 10SM BKN100 M06/M09 A2993 RMK AO2
KFBL 100315Z AUTO 20008KT 10SM SCT090 120 M06/M09 A2998 RMK AO2
KFBL 100255Z AUTO 19008KT 10SM SCT120 M06/M09 A2997 RMK AO2
KFBL 100235Z AUTO 20006KT 10SM BKN120 M06/M09 A2999 RMK AO2
KFBL 100215Z AUTO 21006KT 10SM SCT120 M06/M09 A2999 RMK AO2
KFBL 100155Z AUTO 20006KT 10SM SCT120 M06/M09 A3001 RMK AO2
KFBL 100135Z AUTO 18006KT 10SM SCT120 M07/M09 A3000 RMK AO2
KFBL 100115Z AUTO 18004KT 10SM SCT120 M07/M10 A3002 RMK AO2
KFBL 100055Z AUTO 19005KT 10SM SCT120 M07/M10 A3003 RMK AO2
KFBL 100035Z AUTO 20003KT 10SM SCT120 M07/M10 A3004 RMK AO2
KFBL 100015Z AUTO 20004KT 10SM SCT110 M07/M10 A3005 RMK AO2
KFBL 092355Z AUTO 21004KT 10SM BKN110 M07/M10 A3006 RMK AO2
KFBL 092335Z AUTO 21004KT 10SM SCT120 M07/M10 A3006 RMK AO2
KFBL 092315Z AUTO 23008KT 10SM BKN020 120 M07/M10 A3006 RMK AO2
KFBL 092255Z AUTO 24007KT 10SM BKN022 M07/M10 A3008 RMK AO2
KFBL 092235Z AUTO 24007KT 10SM BKN022 M07/M11 A3008 RMK AO2
KFBL 092215Z AUTO 26008KT 10SM BKN022 M07/M11 A3008 RMK AO2
KFBL 092155Z AUTO 26007KT 10SM OVC022 M06/M10 A3009 RMK AO2
KFBL 092135Z AUTO 26007KT 10SM OVC022 M06/M10 A3008 RMK AO2
KFBL 092115Z AUTO 29004KT 10SM OVC022 M06/M10 A3009 RMK AO2
KFBL 092055Z AUTO 29005KT 10SM OVC022 M06/M10 A3009 RMK AO2
KFBL 092035Z AUTO 29007KT 10SM OVC024 M06/M11 A3010 RMK AO2
KFBL 092015Z AUTO 27008KT 10SM OVC024 M06/M11 A3009 RMK AO2
KFBL 091955Z AUTO 28005KT 10SM BKN026 M06/M11 A3008 RMK AO2
KFBL 091935Z AUTO 31008KT 10SM SCT024 M06/M12 A3009 RMK AO2
KFBL 091915Z AUTO 31003KT 10SM BKN024 M06/M12 A3008 RMK AO2
KFBL 091855Z AUTO 31007KT 10SM OVC024 M06/M11 A3008 RMK AO2
KFBL 091835Z AUTO 29006KT 10SM -SN OVC024 M06/M11 A3009 RMK AO2
KFBL 091815Z AUTO 30007KT 10SM OVC024 M06/M11 A3010 RMK AO2
KFBL 091755Z AUTO 30009KT 10SM OVC024 M06/M11 A3009 RMK AO2
KFBL 091735Z AUTO 32007KT 10SM -SN OVC024 M07/M11 A3010 RMK AO2
KFBL 091715Z AUTO 30008G14KT 7SM -SN OVC024 M07/M11 A3009 RMK AO2
KFBL 091655Z AUTO 33009KT 10SM OVC024 M07/M11 A3010 RMK AO2
KFBL 091635Z AUTO 30007KT 5SM -SN OVC024 M07/M10 A3009 RMK AO2
KFBL 091615Z AUTO 31009KT 10SM OVC026 M07/M11 A3008 RMK AO2
KFBL 091555Z AUTO 33010G14KT 10SM OVC028 M07/M11 A3007 RMK AO2
KFBL 091535Z AUTO 34010KT 10SM -SN OVC028 M07/M11 A3007 RMK AO2
KFBL 091515Z AUTO 35010KT 10SM -SN OVC026 M07/M11 A3006 RMK AO2
KFBL 091455Z AUTO 35010G15KT 10SM -SN OVC028 M07/M11 A3006 RMK AO2
KFBL 091435Z AUTO 35007KT 10SM OVC028 M07/M11 A3005 RMK AO2
KFBL 091415Z AUTO 35006KT 10SM OVC028 M07/M11 A3004 RMK AO2
KFBL 091355Z AUTO 35007KT 10SM OVC028 M07/M11 A3003 RMK AO2
KFBL 091335Z AUTO 35011G17KT 10SM OVC028 M07/M11 A3002 RMK AO2
KFBL 091315Z AUTO 34012G16KT 10SM OVC030 M07/M11 A3000 RMK AO2
KFBL 091255Z AUTO 34007G17KT 10SM OVC030 M06/M11 A2999 RMK AO2
KFBL 091235Z AUTO 33010KT 10SM BKN030 M06/M11 A2998 RMK AO2